ESNZ

Östersund Airport

Östersund, Sweden
METAR ESNZ 192220Z AUTO 14017KT 9999 BKN037/// OVC051/// 15/08 Q0992
Observed Flight Rules
Sep-19 @ 22:20 UTC (13 minutes ago) Visual Flight Rules
Wind Visibility Clouds
140° at 17 knots 10,000+ meters
  • Broken at 3,700' AGL
  • Overcast at 5,100' AGL
Temperatures Readings
Current 15°C / 59°F
Dewpoint 8°C / 46°F
Humidity 63%
Altimeter 29.29" Hg
Pressure 992 hPa
Elevation 370
METAR ESNZ 192220Z AUTO 14017KT 9999 BKN037/// OVC051/// 15/08 Q0992
Observed Flight Rules
Sep-19 @ 22:20 UTC
(13 minutes ago)
VFR
Wind Visibility
140° at 17 knots 10,000+ meters
Clouds
  • Broken at 3,700' AGL
  • Overcast at 5,100' AGL
Temperature Dewpoint
15°C / 59°F 8°C / 46°F
Humidity Altimeter Pressure
63% 29.29" Hg 992 hPa